sensor_id;sensor_type;location;lat;lon;timestamp;pressure;altitude;pressure_sealevel;temperature;humidity
30302;BME280;17111;52.130;5.028;2024-03-29T00:01:21;99078.59;;;16.49;45.48
30302;BME280;17111;52.130;5.028;2024-03-29T00:03:47;99083.09;;;16.49;45.02
30302;BME280;17111;52.130;5.028;2024-03-29T00:06:12;99087.63;;;16.48;45.21
30302;BME280;17111;52.130;5.028;2024-03-29T00:08:38;99082.28;;;16.48;45.81
30302;BME280;17111;52.130;5.028;2024-03-29T00:11:04;99081.44;;;16.48;44.86
30302;BME280;17111;52.130;5.028;2024-03-29T00:13:30;99077.94;;;16.47;44.54
30302;BME280;17111;52.130;5.028;2024-03-29T00:15:55;99087.78;;;16.47;45.78
30302;BME280;17111;52.130;5.028;2024-03-29T00:18:21;99076.28;;;16.46;44.95
30302;BME280;17111;52.130;5.028;2024-03-29T00:20:47;99082.44;;;16.47;44.92
30302;BME280;17111;52.130;5.028;2024-03-29T00:23:13;99080.78;;;16.46;45.34
30302;BME280;17111;52.130;5.028;2024-03-29T00:25:38;99086.16;;;16.46;45.84
30302;BME280;17111;52.130;5.028;2024-03-29T00:28:04;99073.81;;;16.45;45.44
30302;BME280;17111;52.130;5.028;2024-03-29T00:30:30;99084.50;;;16.45;44.94
30302;BME280;17111;52.130;5.028;2024-03-29T00:32:56;99087.16;;;16.45;45.25
30302;BME280;17111;52.130;5.028;2024-03-29T00:35:21;99091.69;;;16.44;45.59
30302;BME280;17111;52.130;5.028;2024-03-29T00:37:49;99089.84;;;16.45;45.47
30302;BME280;17111;52.130;5.028;2024-03-29T00:40:15;99099.72;;;16.44;44.87
30302;BME280;17111;52.130;5.028;2024-03-29T00:42:41;99093.50;;;16.44;45.03
30302;BME280;17111;52.130;5.028;2024-03-29T00:45:07;99101.53;;;16.44;45.47
30302;BME280;17111;52.130;5.028;2024-03-29T00:47:33;99098.84;;;16.44;45.16
30302;BME280;17111;52.130;5.028;2024-03-29T00:50:00;99105.06;;;16.44;44.76
30302;BME280;17111;52.130;5.028;2024-03-29T00:52:25;99100.72;;;16.43;44.62
30302;BME280;17111;52.130;5.028;2024-03-29T00:54:51;99099.88;;;16.43;45.75
30302;BME280;17111;52.130;5.028;2024-03-29T00:57:16;99103.38;;;16.43;45.22
30302;BME280;17111;52.130;5.028;2024-03-29T00:59:44;99102.56;;;16.43;45.66
30302;BME280;17111;52.130;5.028;2024-03-29T01:02:09;99109.75;;;16.42;45.10
30302;BME280;17111;52.130;5.028;2024-03-29T01:04:35;99102.56;;;16.43;45.60
30302;BME280;17111;52.130;5.028;2024-03-29T01:07:01;99113.25;;;16.43;45.09
30302;BME280;17111;52.130;5.028;2024-03-29T01:09:26;99111.59;;;16.42;45.57
30302;BME280;17111;52.130;5.028;2024-03-29T01:11:52;99116.94;;;16.42;45.07
30302;BME280;17111;52.130;5.028;2024-03-29T01:14:19;99115.09;;;16.42;45.51
30302;BME280;17111;52.130;5.028;2024-03-29T01:16:45;99116.94;;;16.42;45.22
30302;BME280;17111;52.130;5.028;2024-03-29T01:19:10;99113.44;;;16.41;45.75
30302;BME280;17111;52.130;5.028;2024-03-29T01:21:36;99108.94;;;16.42;45.34
30302;BME280;17111;52.130;5.028;2024-03-29T01:24:03;99109.75;;;16.42;45.56
30302;BME280;17111;52.130;5.028;2024-03-29T01:26:29;99109.94;;;16.41;45.71
30302;BME280;17111;52.130;5.028;2024-03-29T01:28:54;99101.09;;;16.40;46.00
30302;BME280;17111;52.130;5.028;2024-03-29T01:31:22;99102.91;;;16.40;45.30
30302;BME280;17111;52.130;5.028;2024-03-29T01:33:47;99097.56;;;16.40;45.33
30302;BME280;17111;52.130;5.028;2024-03-29T01:36:13;99100.25;;;16.40;46.06
30302;BME280;17111;52.130;5.028;2024-03-29T01:38:38;99103.94;;;16.39;45.48
30302;BME280;17111;52.130;5.028;2024-03-29T01:41:04;99095.91;;;16.39;45.78
30302;BME280;17111;52.130;5.028;2024-03-29T01:43:30;99093.25;;;16.39;44.98
30302;BME280;17111;52.130;5.028;2024-03-29T01:45:56;99086.25;;;16.38;45.74
30302;BME280;17111;52.130;5.028;2024-03-29T01:48:26;99077.41;;;16.37;45.79
30302;BME280;17111;52.130;5.028;2024-03-29T01:50:57;99076.56;;;16.37;45.71
30302;BME280;17111;52.130;5.028;2024-03-29T01:53:23;99069.19;;;16.39;45.90
30302;BME280;17111;52.130;5.028;2024-03-29T01:55:49;99070.22;;;16.38;45.72
30302;BME280;17111;52.130;5.028;2024-03-29T01:58:15;99057.88;;;16.37;45.11
30302;BME280;17111;52.130;5.028;2024-03-29T02:00:48;99061.38;;;16.37;45.34
30302;BME280;17111;52.130;5.028;2024-03-29T02:03:14;99071.22;;;16.37;45.57
30302;BME280;17111;52.130;5.028;2024-03-29T02:05:41;99076.56;;;16.37;46.22
30302;BME280;17111;52.130;5.028;2024-03-29T02:08:07;99074.72;;;16.37;45.93
30302;BME280;17111;52.130;5.028;2024-03-29T02:10:36;99068.72;;;16.35;45.76
30302;BME280;17111;52.130;5.028;2024-03-29T02:13:03;99076.75;;;16.35;45.35
30302;BME280;17111;52.130;5.028;2024-03-29T02:15:29;99082.09;;;16.35;45.30
30302;BME280;17111;52.130;5.028;2024-03-29T02:17:55;99083.94;;;16.35;45.87
30302;BME280;17111;52.130;5.028;2024-03-29T02:20:21;99089.47;;;16.33;45.39
30302;BME280;17111;52.130;5.028;2024-03-29T02:22:58;99092.16;;;16.33;46.27
30302;BME280;17111;52.130;5.028;2024-03-29T02:25:25;99091.34;;;16.33;45.44
30302;BME280;17111;52.130;5.028;2024-03-29T02:27:51;99086.81;;;16.33;45.76
30302;BME280;17111;52.130;5.028;2024-03-29T02:30:17;99096.69;;;16.33;45.36
30302;BME280;17111;52.130;5.028;2024-03-29T02:32:43;99104.69;;;16.33;45.82
30302;BME280;17111;52.130;5.028;2024-03-29T02:35:09;99108.56;;;16.30;45.43
30302;BME280;17111;52.130;5.028;2024-03-29T02:37:35;99111.03;;;16.32;45.70
30302;BME280;17111;52.130;5.028;2024-03-29T02:40:05;99114.72;;;16.31;45.54
30302;BME280;17111;52.130;5.028;2024-03-29T02:42:31;99104.22;;;16.29;45.28
30302;BME280;17111;52.130;5.028;2024-03-29T02:44:58;99111.44;;;16.28;45.54
30302;BME280;17111;52.130;5.028;2024-03-29T02:47:23;99106.91;;;16.29;45.33
30302;BME280;17111;52.130;5.028;2024-03-29T02:49:49;99094.53;;;16.28;44.89
30302;BME280;17111;52.130;5.028;2024-03-29T02:52:15;99105.22;;;16.28;45.82
30302;BME280;17111;52.130;5.028;2024-03-29T02:54:41;99099.06;;;16.27;45.48
30302;BME280;17111;52.130;5.028;2024-03-29T02:57:07;99100.06;;;16.26;45.10
30302;BME280;17111;52.130;5.028;2024-03-29T02:59:32;99097.41;;;16.26;45.29
30302;BME280;17111;52.130;5.028;2024-03-29T03:01:58;99101.72;;;16.27;45.90
30302;BME280;17111;52.130;5.028;2024-03-29T03:04:24;99108.91;;;16.27;45.64
30302;BME280;17111;52.130;5.028;2024-03-29T03:06:49;99109.94;;;16.26;44.90
30302;BME280;17111;52.130;5.028;2024-03-29T03:09:15;99104.41;;;16.27;45.72
30302;BME280;17111;52.130;5.028;2024-03-29T03:11:59;99099.25;;;16.26;45.44
30302;BME280;17111;52.130;5.028;2024-03-29T03:14:25;99105.41;;;16.26;45.01
30302;BME280;17111;52.130;5.028;2024-03-29T03:16:50;99108.09;;;16.26;45.32
30302;BME280;17111;52.130;5.028;2024-03-29T03:19:16;99124.13;;;16.26;45.83
30302;BME280;17111;52.130;5.028;2024-03-29T03:21:41;99113.44;;;16.26;45.46
30302;BME280;17111;52.130;5.028;2024-03-29T03:24:07;99113.44;;;16.26;45.13
30302;BME280;17111;52.130;5.028;2024-03-29T03:26:33;99129.47;;;16.26;45.54
30302;BME280;17111;52.130;5.028;2024-03-29T03:28:58;99129.47;;;16.26;45.69
30302;BME280;17111;52.130;5.028;2024-03-29T03:31:24;99130.31;;;16.27;45.50
30302;BME280;17111;52.130;5.028;2024-03-29T03:33:49;99116.94;;;16.27;44.93
30302;BME280;17111;52.130;5.028;2024-03-29T03:36:15;99131.13;;;16.27;45.75
30302;BME280;17111;52.130;5.028;2024-03-29T03:38:41;99126.81;;;16.26;46.10
30302;BME280;17111;52.130;5.028;2024-03-29T03:41:07;99124.13;;;16.26;45.01
30302;BME280;17111;52.130;5.028;2024-03-29T03:43:33;99134.81;;;16.26;44.86
30302;BME280;17111;52.130;5.028;2024-03-29T03:46:02;99127.84;;;16.25;45.72
30302;BME280;17111;52.130;5.028;2024-03-29T03:48:27;99117.13;;;16.25;45.38
30302;BME280;17111;52.130;5.028;2024-03-29T03:50:56;99126.81;;;16.26;44.90
30302;BME280;17111;52.130;5.028;2024-03-29T03:53:22;99137.50;;;16.26;45.68
30302;BME280;17111;52.130;5.028;2024-03-29T03:55:48;99126.19;;;16.24;45.66
30302;BME280;17111;52.130;5.028;2024-03-29T03:58:14;99139.34;;;16.26;45.28
30302;BME280;17111;52.130;5.028;2024-03-29T04:00:39;99127.00;;;16.25;45.67
30302;BME280;17111;52.130;5.028;2024-03-29T04:03:05;99136.88;;;16.24;45.35
30302;BME280;17111;52.130;5.028;2024-03-29T04:05:31;99139.53;;;16.24;44.90
30302;BME280;17111;52.130;5.028;2024-03-29T04:07:57;99133.34;;;16.24;45.46
30302;BME280;17111;52.130;5.028;2024-03-29T04:10:24;99137.84;;;16.23;45.68
30302;BME280;17111;52.130;5.028;2024-03-29T04:12:52;99138.06;;;16.22;45.24
30302;BME280;17111;52.130;5.028;2024-03-29T04:15:18;99134.38;;;16.23;45.62
30302;BME280;17111;52.130;5.028;2024-03-29T04:17:44;99141.56;;;16.22;45.79
30302;BME280;17111;52.130;5.028;2024-03-29T04:20:09;99138.06;;;16.22;45.08
30302;BME280;17111;52.130;5.028;2024-03-29T04:22:35;99137.22;;;16.21;44.74
30302;BME280;17111;52.130;5.028;2024-03-29T04:25:01;99133.53;;;16.22;45.63
30302;BME280;17111;52.130;5.028;2024-03-29T04:27:27;99138.06;;;16.22;45.43
30302;BME280;17111;52.130;5.028;2024-03-29T04:29:53;99135.38;;;16.22;44.99
30302;BME280;17111;52.130;5.028;2024-03-29T04:32:19;99138.06;;;16.22;45.49
30302;BME280;17111;52.130;5.028;2024-03-29T04:34:49;99135.56;;;16.20;45.19
30302;BME280;17111;52.130;5.028;2024-03-29T04:37:15;99138.06;;;16.22;45.59
30302;BME280;17111;52.130;5.028;2024-03-29T04:39:42;99136.41;;;16.21;45.31
30302;BME280;17111;52.130;5.028;2024-03-29T04:42:08;99129.22;;;16.21;45.86
30302;BME280;17111;52.130;5.028;2024-03-29T04:44:34;99126.53;;;16.21;44.66
30302;BME280;17111;52.130;5.028;2024-03-29T04:46:59;99128.38;;;16.21;45.65
30302;BME280;17111;52.130;5.028;2024-03-29T04:49:26;99135.56;;;16.20;45.12
30302;BME280;17111;52.130;5.028;2024-03-29T04:52:05;99136.56;;;16.19;45.09
30302;BME280;17111;52.130;5.028;2024-03-29T04:54:33;99132.03;;;16.20;45.12
30302;BME280;17111;52.130;5.028;2024-03-29T04:57:00;99149.94;;;16.19;45.44
30302;BME280;17111;52.130;5.028;2024-03-29T04:59:32;99147.25;;;16.19;45.00
30302;BME280;17111;52.130;5.028;2024-03-29T05:01:59;99157.13;;;16.19;45.90
30302;BME280;17111;52.130;5.028;2024-03-29T05:04:25;99160.00;;;16.17;44.90
30302;BME280;17111;52.130;5.028;2024-03-29T05:06:55;99159.81;;;16.19;45.11
30302;BME280;17111;52.130;5.028;2024-03-29T05:09:21;99164.31;;;16.18;45.06
30302;BME280;17111;52.130;5.028;2024-03-29T05:11:47;99155.66;;;16.16;45.54
30302;BME280;17111;52.130;5.028;2024-03-29T05:14:18;99164.69;;;16.15;45.03
30302;BME280;17111;52.130;5.028;2024-03-29T05:16:45;99151.31;;;16.15;45.20
30302;BME280;17111;52.130;5.028;2024-03-29T05:19:12;99158.50;;;16.15;45.20
30302;BME280;17111;52.130;5.028;2024-03-29T05:21:38;99156.84;;;16.14;45.90
30302;BME280;17111;52.130;5.028;2024-03-29T05:24:04;99157.69;;;16.14;44.75
30302;BME280;17111;52.130;5.028;2024-03-29T05:26:29;99164.88;;;16.14;45.16
30302;BME280;17111;52.130;5.028;2024-03-29T05:28:56;99172.88;;;16.14;44.97
30302;BME280;17111;52.130;5.028;2024-03-29T05:31:24;99162.19;;;16.14;45.31
30302;BME280;17111;52.130;5.028;2024-03-29T05:33:50;99173.72;;;16.14;45.68
30302;BME280;17111;52.130;5.028;2024-03-29T05:36:16;99178.22;;;16.14;45.07
30302;BME280;17111;52.130;5.028;2024-03-29T05:38:42;99173.91;;;16.13;45.74
30302;BME280;17111;52.130;5.028;2024-03-29T05:41:07;99176.59;;;16.13;45.97
30302;BME280;17111;52.130;5.028;2024-03-29T05:43:33;99177.41;;;16.13;45.02
30302;BME280;17111;52.130;5.028;2024-03-29T05:45:59;99169.56;;;16.12;45.96
30302;BME280;17111;52.130;5.028;2024-03-29T05:48:28;99187.44;;;16.11;45.37
30302;BME280;17111;52.130;5.028;2024-03-29T05:50:54;99191.13;;;16.10;46.00
30302;BME280;17111;52.130;5.028;2024-03-29T05:53:20;99198.31;;;16.10;46.00
30302;BME280;17111;52.130;5.028;2024-03-29T05:55:45;99208.34;;;16.08;45.42
30302;BME280;17111;52.130;5.028;2024-03-29T05:58:11;99192.50;;;16.06;45.62
30302;BME280;17111;52.130;5.028;2024-03-29T06:00:41;99196.00;;;16.07;45.96
30302;BME280;17111;52.130;5.028;2024-03-29T06:03:07;99202.38;;;16.06;46.23
30302;BME280;17111;52.130;5.028;2024-03-29T06:05:33;99206.06;;;16.04;45.78
30302;BME280;17111;52.130;5.028;2024-03-29T06:07:58;99216.91;;;16.03;45.68
30302;BME280;17111;52.130;5.028;2024-03-29T06:10:24;99206.22;;;16.03;46.25
30302;BME280;17111;52.130;5.028;2024-03-29T06:12:49;99208.25;;;16.01;46.62
30302;BME280;17111;52.130;5.028;2024-03-29T06:15:15;99205.75;;;15.99;46.15
30302;BME280;17111;52.130;5.028;2024-03-29T06:17:59;99209.63;;;15.97;46.65
30302;BME280;17111;52.130;5.028;2024-03-29T06:20:25;99210.63;;;15.96;46.28
30302;BME280;17111;52.130;5.028;2024-03-29T06:22:51;99213.28;;;15.96;46.35
30302;BME280;17111;52.130;5.028;2024-03-29T06:25:17;99205.28;;;15.96;47.11
30302;BME280;17111;52.130;5.028;2024-03-29T06:27:43;99206.13;;;15.96;47.04
30302;BME280;17111;52.130;5.028;2024-03-29T06:30:15;99215.97;;;15.96;46.81
30302;BME280;17111;52.130;5.028;2024-03-29T06:32:44;99228.34;;;15.97;47.04
30302;BME280;17111;52.130;5.028;2024-03-29T06:35:11;99230.00;;;15.98;46.79
30302;BME280;17111;52.130;5.028;2024-03-29T06:37:37;99227.31;;;15.98;46.38
30302;BME280;17111;52.130;5.028;2024-03-29T06:40:04;99239.50;;;16.00;47.38
30302;BME280;17111;52.130;5.028;2024-03-29T06:42:29;99235.13;;;15.99;46.59
30302;BME280;17111;52.130;5.028;2024-03-29T06:44:56;99228.63;;;16.02;47.14
30302;BME280;17111;52.130;5.028;2024-03-29T06:47:24;99227.59;;;16.03;47.52
30302;BME280;17111;52.130;5.028;2024-03-29T06:49:50;99214.22;;;16.03;46.44
30302;BME280;17111;52.130;5.028;2024-03-29T06:52:16;99220.25;;;16.05;47.22
30302;BME280;17111;52.130;5.028;2024-03-29T06:54:41;99222.91;;;16.05;46.76
30302;BME280;17111;52.130;5.028;2024-03-29T06:57:07;99207.72;;;16.06;47.30
30302;BME280;17111;52.130;5.028;2024-03-29T06:59:34;99206.69;;;16.07;47.30
30302;BME280;17111;52.130;5.028;2024-03-29T07:02:00;99220.88;;;16.07;47.57
30302;BME280;17111;52.130;5.028;2024-03-29T07:04:26;99230.38;;;16.10;47.49
30302;BME280;17111;52.130;5.028;2024-03-29T07:06:53;99218.53;;;16.12;47.49
30302;BME280;17111;52.130;5.028;2024-03-29T07:09:20;99230.50;;;16.16;47.51
30302;BME280;17111;52.130;5.028;2024-03-29T07:11:47;99237.16;;;16.20;47.59
30302;BME280;17111;52.130;5.028;2024-03-29T07:14:14;99238.47;;;16.24;47.69
30302;BME280;17111;52.130;5.028;2024-03-29T07:16:40;99230.72;;;16.29;47.65
30302;BME280;17111;52.130;5.028;2024-03-29T07:19:05;99234.13;;;16.38;48.04
30302;BME280;17111;52.130;5.028;2024-03-29T07:21:31;99234.31;;;16.51;48.00
30302;BME280;17111;52.130;5.028;2024-03-29T07:23:57;99238.88;;;16.66;47.95
30302;BME280;17111;52.130;5.028;2024-03-29T07:26:23;99244.25;;;16.81;47.69
30302;BME280;17111;52.130;5.028;2024-03-29T07:28:48;99238.72;;;16.97;47.28
30302;BME280;17111;52.130;5.028;2024-03-29T07:31:14;99247.53;;;17.12;47.67
30302;BME280;17111;52.130;5.028;2024-03-29T07:33:40;99263.38;;;17.28;46.88
30302;BME280;17111;52.130;5.028;2024-03-29T07:36:06;99263.19;;;17.45;46.73
30302;BME280;17111;52.130;5.028;2024-03-29T07:38:31;99265.19;;;17.58;46.70
30302;BME280;17111;52.130;5.028;2024-03-29T07:40:57;99264.13;;;17.73;46.51
30302;BME280;17111;52.130;5.028;2024-03-29T07:43:23;99264.28;;;17.87;46.08
30302;BME280;17111;52.130;5.028;2024-03-29T07:45:48;99257.41;;;17.99;46.12
30302;BME280;17111;52.130;5.028;2024-03-29T07:48:16;99262.25;;;18.10;45.98
30302;BME280;17111;52.130;5.028;2024-03-29T07:50:42;99277.81;;;18.21;46.04
30302;BME280;17111;52.130;5.028;2024-03-29T07:53:08;99261.38;;;18.31;45.72
30302;BME280;17111;52.130;5.028;2024-03-29T07:55:35;99259.84;;;18.43;45.81
30302;BME280;17111;52.130;5.028;2024-03-29T07:58:01;99252.47;;;18.52;45.81
30302;BME280;17111;52.130;5.028;2024-03-29T08:00:26;99253.56;;;18.64;45.42
30302;BME280;17111;52.130;5.028;2024-03-29T08:02:52;99247.09;;;18.73;45.34
30302;BME280;17111;52.130;5.028;2024-03-29T08:05:20;99245.69;;;18.84;45.40
30302;BME280;17111;52.130;5.028;2024-03-29T08:07:46;99242.66;;;18.94;45.81
30302;BME280;17111;52.130;5.028;2024-03-29T08:10:12;99233.41;;;19.03;45.44
30302;BME280;17111;52.130;5.028;2024-03-29T08:12:37;99242.09;;;19.12;45.18
30302;BME280;17111;52.130;5.028;2024-03-29T08:15:04;99248.94;;;19.21;45.38
30302;BME280;17111;52.130;5.028;2024-03-29T08:17:29;99250.63;;;19.29;45.18
30302;BME280;17111;52.130;5.028;2024-03-29T08:19:55;99262.03;;;19.37;44.60
30302;BME280;17111;52.130;5.028;2024-03-29T08:22:21;99269.09;;;19.45;44.63
30302;BME280;17111;52.130;5.028;2024-03-29T08:24:47;99260.25;;;19.51;44.71
30302;BME280;17111;52.130;5.028;2024-03-29T08:27:12;99260.06;;;19.59;44.88
30302;BME280;17111;52.130;5.028;2024-03-29T08:29:38;99259.06;;;19.67;44.47
30302;BME280;17111;52.130;5.028;2024-03-29T08:32:06;99266.97;;;19.75;44.54
30302;BME280;17111;52.130;5.028;2024-03-29T08:34:32;99257.06;;;19.82;44.23
30302;BME280;17111;52.130;5.028;2024-03-29T08:37:03;99278.38;;;19.90;43.89
30302;BME280;17111;52.130;5.028;2024-03-29T08:39:30;99288.94;;;19.99;43.80
30302;BME280;17111;52.130;5.028;2024-03-29T08:41:56;99292.66;;;20.04;44.13
30302;BME280;17111;52.130;5.028;2024-03-29T08:44:21;99298.25;;;20.09;43.82
30302;BME280;17111;52.130;5.028;2024-03-29T08:46:47;99286.66;;;20.15;44.19
30302;BME280;17111;52.130;5.028;2024-03-29T08:49:12;99290.38;;;20.21;43.80
30302;BME280;17111;52.130;5.028;2024-03-29T08:51:38;99292.06;;;20.29;44.63
30302;BME280;17111;52.130;5.028;2024-03-29T08:54:04;99293.94;;;20.35;44.18
30302;BME280;17111;52.130;5.028;2024-03-29T08:56:31;99288.53;;;20.41;44.10
30302;BME280;17111;52.130;5.028;2024-03-29T08:58:58;99285.03;;;20.48;44.55
30302;BME280;17111;52.130;5.028;2024-03-29T09:01:26;99287.72;;;20.54;44.03
30302;BME280;17111;52.130;5.028;2024-03-29T09:03:52;99287.94;;;20.59;43.83
30302;BME280;17111;52.130;5.028;2024-03-29T09:06:18;99293.94;;;20.61;44.38
30302;BME280;17111;52.130;5.028;2024-03-29T09:08:44;99294.56;;;20.63;44.24
30302;BME280;17111;52.130;5.028;2024-03-29T09:11:10;99296.63;;;20.61;43.81
30302;BME280;17111;52.130;5.028;2024-03-29T09:13:37;99301.41;;;20.59;43.73
30302;BME280;17111;52.130;5.028;2024-03-29T09:16:03;99288.13;;;20.58;43.48
30302;BME280;17111;52.130;5.028;2024-03-29T09:18:28;99286.72;;;20.55;44.05
30302;BME280;17111;52.130;5.028;2024-03-29T09:21:00;99285.47;;;20.51;43.91
30302;BME280;17111;52.130;5.028;2024-03-29T09:23:27;99304.09;;;20.53;44.32
30302;BME280;17111;52.130;5.028;2024-03-29T09:25:55;99319.63;;;20.57;44.50
30302;BME280;17111;52.130;5.028;2024-03-29T09:28:22;99315.28;;;20.63;44.73
30302;BME280;17111;52.130;5.028;2024-03-29T09:30:48;99325.44;;;20.67;44.51
30302;BME280;17111;52.130;5.028;2024-03-29T09:33:13;99326.03;;;20.69;44.14
30302;BME280;17111;52.130;5.028;2024-03-29T09:35:39;99323.34;;;20.69;44.04
30302;BME280;17111;52.130;5.028;2024-03-29T09:38:05;99338.06;;;20.67;43.43
30302;BME280;17111;52.130;5.028;2024-03-29T09:40:31;99328.75;;;20.63;43.67
30302;BME280;17111;52.130;5.028;2024-03-29T09:43:00;99335.38;;;20.60;43.24
30302;BME280;17111;52.130;5.028;2024-03-29T09:45:31;99337.44;;;20.52;42.87
30302;BME280;17111;52.130;5.028;2024-03-29T09:48:04;99345.28;;;20.46;43.65
30302;BME280;17111;52.130;5.028;2024-03-29T09:50:33;99343.41;;;20.40;43.33
30302;BME280;17111;52.130;5.028;2024-03-29T09:53:02;99346.06;;;20.34;43.17
30302;BME280;17111;52.130;5.028;2024-03-29T09:55:28;99351.06;;;20.30;43.48
30302;BME280;17111;52.130;5.028;2024-03-29T09:57:55;99348.38;;;20.30;44.02
30302;BME280;17111;52.130;5.028;2024-03-29T10:00:21;99340.09;;;20.32;43.89
30302;BME280;17111;52.130;5.028;2024-03-29T10:02:49;99333.03;;;20.37;44.04
30302;BME280;17111;52.130;5.028;2024-03-29T10:05:15;99328.72;;;20.43;44.22
30302;BME280;17111;52.130;5.028;2024-03-29T10:07:43;99325.03;;;20.51;44.28
30302;BME280;17111;52.130;5.028;2024-03-29T10:10:10;99344.47;;;20.59;44.18
30302;BME280;17111;52.130;5.028;2024-03-29T10:12:39;99338.47;;;20.64;44.61
30302;BME280;17111;52.130;5.028;2024-03-29T10:15:05;99336.81;;;20.69;44.41
30302;BME280;17111;52.130;5.028;2024-03-29T10:17:36;99332.66;;;20.74;44.30
30302;BME280;17111;52.130;5.028;2024-03-29T10:20:04;99327.69;;;20.77;44.38
30302;BME280;17111;52.130;5.028;2024-03-29T10:22:36;99325.81;;;20.78;43.97
30302;BME280;17111;52.130;5.028;2024-03-29T10:25:02;99324.59;;;20.80;44.63
30302;BME280;17111;52.130;5.028;2024-03-29T10:27:28;99326.66;;;20.85;44.50
30302;BME280;17111;52.130;5.028;2024-03-29T10:29:55;99335.78;;;20.90;44.49
30302;BME280;17111;52.130;5.028;2024-03-29T10:32:22;99340.53;;;20.95;44.40
30302;BME280;17111;52.130;5.028;2024-03-29T10:34:48;99337.81;;;21.02;44.79
30302;BME280;17111;52.130;5.028;2024-03-29T10:37:14;99346.94;;;21.07;44.39
30302;BME280;17111;52.130;5.028;2024-03-29T10:39:44;99355.44;;;21.11;44.39
30302;BME280;17111;52.130;5.028;2024-03-29T10:42:10;99346.28;;;21.12;44.57
30302;BME280;17111;52.130;5.028;2024-03-29T10:44:39;99340.69;;;21.13;44.07
30302;BME280;17111;52.130;5.028;2024-03-29T10:47:06;99335.94;;;21.15;44.19
30302;BME280;17111;52.130;5.028;2024-03-29T10:49:33;99331.78;;;21.19;44.47
30302;BME280;17111;52.130;5.028;2024-03-29T10:52:00;99342.97;;;21.23;44.27
30302;BME280;17111;52.130;5.028;2024-03-29T10:54:28;99354.75;;;21.22;44.09
30302;BME280;17111;52.130;5.028;2024-03-29T10:56:59;99359.31;;;21.22;44.23
30302;BME280;17111;52.130;5.028;2024-03-29T10:59:34;99361.59;;;21.18;44.26
30302;BME280;17111;52.130;5.028;2024-03-29T11:02:12;99360.19;;;21.15;44.50
30302;BME280;17111;52.130;5.028;2024-03-29T11:04:39;99364.75;;;21.15;44.31
30302;BME280;17111;52.130;5.028;2024-03-29T11:07:07;99378.41;;;21.13;44.32
30302;BME280;17111;52.130;5.028;2024-03-29T11:09:38;99389.19;;;21.13;44.55
30302;BME280;17111;52.130;5.028;2024-03-29T11:12:04;99391.69;;;21.15;44.53
30302;BME280;17111;52.130;5.028;2024-03-29T11:14:37;99378.22;;;21.15;44.93
30302;BME280;17111;52.130;5.028;2024-03-29T11:17:03;99373.44;;;21.17;44.41
30302;BME280;17111;52.130;5.028;2024-03-29T11:19:30;99376.75;;;21.19;44.59
30302;BME280;17111;52.130;5.028;2024-03-29T11:21:56;99382.75;;;21.21;45.36
30302;BME280;17111;52.130;5.028;2024-03-29T11:24:22;99378.59;;;21.25;45.18
30302;BME280;17111;52.130;5.028;2024-03-29T11:26:49;99377.34;;;21.28;45.44
30302;BME280;17111;52.130;5.028;2024-03-29T11:29:19;99379.00;;;21.29;45.07
30302;BME280;17111;52.130;5.028;2024-03-29T11:31:46;99382.53;;;21.29;45.91
30302;BME280;17111;52.130;5.028;2024-03-29T11:34:18;99380.66;;;21.30;45.36
30302;BME280;17111;52.130;5.028;2024-03-29T11:36:45;99373.84;;;21.34;44.98
30302;BME280;17111;52.130;5.028;2024-03-29T11:39:20;99372.81;;;21.35;45.14
30302;BME280;17111;52.130;5.028;2024-03-29T11:41:47;99366.38;;;21.36;44.59
30302;BME280;17111;52.130;5.028;2024-03-29T11:44:13;99372.59;;;21.36;44.90
30302;BME280;17111;52.130;5.028;2024-03-29T11:46:40;99374.25;;;21.37;44.69
30302;BME280;17111;52.130;5.028;2024-03-29T11:49:06;99361.00;;;21.36;44.52
30302;BME280;17111;52.130;5.028;2024-03-29T11:51:31;99381.72;;;21.35;44.38
30302;BME280;17111;52.130;5.028;2024-03-29T11:53:57;99369.25;;;21.34;44.45
30302;BME280;17111;52.130;5.028;2024-03-29T11:56:22;99371.97;;;21.34;44.48
30302;BME280;17111;52.130;5.028;2024-03-29T11:58:48;99373.63;;;21.35;44.42
30302;BME280;17111;52.130;5.028;2024-03-29T12:01:14;99373.63;;;21.35;44.42
30302;BME280;17111;52.130;5.028;2024-03-29T12:03:41;99376.09;;;21.37;44.61
30302;BME280;17111;52.130;5.028;2024-03-29T12:06:08;99381.28;;;21.38;44.69
30302;BME280;17111;52.130;5.028;2024-03-29T12:08:40;99385.66;;;21.39;44.91
30302;BME280;17111;52.130;5.028;2024-03-29T12:11:08;99393.75;;;21.39;44.30
30302;BME280;17111;52.130;5.028;2024-03-29T12:13:34;99405.34;;;21.40;44.83
30302;BME280;17111;52.130;5.028;2024-03-29T12:16:00;99407.00;;;21.41;45.04
30302;BME280;17111;52.130;5.028;2024-03-29T12:18:27;99400.56;;;21.42;44.76
30302;BME280;17111;52.130;5.028;2024-03-29T12:20:59;99408.22;;;21.38;45.92
30302;BME280;17111;52.130;5.028;2024-03-29T12:23:25;99394.16;;;21.36;45.42
30302;BME280;17111;52.130;5.028;2024-03-29T12:25:53;99388.75;;;21.36;45.15
30302;BME280;17111;52.130;5.028;2024-03-29T12:28:21;99377.16;;;21.36;44.65
30302;BME280;17111;52.130;5.028;2024-03-29T12:30:47;99397.06;;;21.35;44.95
30302;BME280;17111;52.130;5.028;2024-03-29T12:33:18;99396.44;;;21.33;44.68
30302;BME280;17111;52.130;5.028;2024-03-29T12:35:49;99394.56;;;21.33;45.09
30302;BME280;17111;52.130;5.028;2024-03-29T12:38:16;99394.56;;;21.33;45.22
30302;BME280;17111;52.130;5.028;2024-03-29T12:40:44;99398.91;;;21.34;45.14
30302;BME280;17111;52.130;5.028;2024-03-29T12:43:11;99399.78;;;21.35;45.26
30302;BME280;17111;52.130;5.028;2024-03-29T12:45:38;99394.16;;;21.36;45.49
30302;BME280;17111;52.130;5.028;2024-03-29T12:48:13;99394.97;;;21.37;45.85
30302;BME280;17111;52.130;5.028;2024-03-29T12:50:41;99396.44;;;21.39;45.47
30302;BME280;17111;52.130;5.028;2024-03-29T12:53:09;99396.84;;;21.43;46.03
30302;BME280;17111;52.130;5.028;2024-03-29T12:55:35;99394.97;;;21.43;45.61
30302;BME280;17111;52.130;5.028;2024-03-29T12:58:02;99390.19;;;21.46;45.68